createdAt,value
2022-11-08T00:00:06.282Z,98.50
2022-11-08T00:02:33.074Z,98.50
2022-11-08T00:05:18.513Z,98.50
2022-11-08T00:08:04.004Z,98.50
2022-11-08T00:10:49.126Z,98.50
2022-11-08T00:13:34.532Z,98.50
2022-11-08T00:16:01.513Z,98.50
2022-11-08T00:18:28.278Z,98.50
2022-11-08T00:20:54.919Z,98.50
2022-11-08T00:23:21.584Z,98.50
2022-11-08T00:25:54.176Z,98.50
2022-11-08T00:28:21.181Z,98.50
2022-11-08T00:30:47.837Z,98.50
2022-11-08T00:33:14.832Z,98.50
2022-11-08T00:35:41.496Z,98.50
2022-11-08T00:38:08.183Z,98.50
2022-11-08T00:40:35.089Z,98.50
2022-11-08T00:43:01.878Z,98.50
2022-11-08T00:45:28.541Z,98.50
2022-11-08T00:47:55.179Z,98.50
2022-11-08T00:50:21.860Z,98.50
2022-11-08T00:52:48.515Z,98.50
2022-11-08T00:55:15.212Z,98.50
2022-11-08T00:57:58.405Z,98.50
2022-11-08T01:00:25.647Z,98.50
2022-11-08T01:03:12.258Z,98.50
2022-11-08T01:05:39.155Z,98.50
2022-11-08T01:08:05.976Z,98.50
2022-11-08T01:10:32.742Z,98.50
2022-11-08T01:12:59.446Z,98.50
2022-11-08T01:15:26.425Z,98.50
2022-11-08T01:17:53.180Z,98.50
2022-11-08T01:20:19.838Z,98.50
2022-11-08T01:22:46.496Z,98.50
2022-11-08T01:25:13.156Z,98.50
2022-11-08T01:27:39.821Z,98.50
2022-11-08T01:30:07.191Z,98.50
2022-11-08T01:32:33.852Z,98.50
2022-11-08T01:35:00.517Z,98.50
2022-11-08T01:37:27.149Z,98.50
2022-11-08T01:39:54.003Z,98.50
2022-11-08T01:42:31.432Z,98.50
2022-11-08T01:45:36.279Z,98.50
2022-11-08T01:48:02.952Z,98.50
2022-11-08T01:50:29.791Z,98.50
2022-11-08T01:52:56.603Z,98.50
2022-11-08T01:55:27.938Z,98.50
2022-11-08T01:58:09.935Z,98.50
2022-11-08T02:00:38.664Z,98.50
2022-11-08T02:03:09.036Z,98.50
2022-11-08T02:05:35.760Z,98.50
2022-11-08T02:08:17.888Z,98.50
2022-11-08T02:10:49.437Z,98.50
2022-11-08T02:13:20.458Z,98.50
2022-11-08T02:15:47.356Z,98.50
2022-11-08T02:18:16.665Z,98.50
2022-11-08T02:20:52.656Z,98.50
2022-11-08T02:23:27.410Z,98.50
2022-11-08T02:25:54.106Z,98.50
2022-11-08T02:28:21.365Z,98.50
2022-11-08T02:30:48.116Z,98.50
2022-11-08T02:33:23.052Z,98.50
2022-11-08T02:35:53.631Z,98.50
2022-11-08T02:38:21.252Z,98.50
2022-11-08T02:40:53.352Z,98.50
2022-11-08T02:43:20.809Z,98.50
2022-11-08T02:45:48.616Z,98.50
2022-11-08T02:48:16.078Z,98.50
2022-11-08T02:50:43.324Z,98.50
2022-11-08T02:53:10.382Z,98.50
2022-11-08T02:55:37.544Z,98.50
2022-11-08T02:58:04.536Z,98.50
2022-11-08T03:00:31.478Z,98.50
2022-11-08T03:02:58.802Z,98.50
2022-11-08T03:05:26.988Z,98.50
2022-11-08T03:07:55.063Z,98.50
2022-11-08T03:10:23.191Z,98.50
2022-11-08T03:12:57.335Z,98.50
2022-11-08T03:15:24.100Z,98.50
2022-11-08T03:17:50.971Z,98.50
2022-11-08T03:20:18.363Z,98.50
2022-11-08T03:22:46.140Z,98.50
2022-11-08T03:25:13.120Z,98.50
2022-11-08T03:27:40.232Z,98.50
2022-11-08T03:30:07.845Z,98.50
2022-11-08T03:32:34.516Z,98.50
2022-11-08T03:35:01.184Z,98.50
2022-11-08T03:37:27.831Z,98.50
2022-11-08T03:39:54.455Z,98.50
2022-11-08T03:42:21.074Z,98.50
2022-11-08T03:44:47.722Z,98.50
2022-11-08T03:47:14.372Z,98.50
2022-11-08T03:49:41.057Z,98.50
2022-11-08T03:52:07.780Z,98.50
2022-11-08T03:54:34.474Z,98.50
2022-11-08T03:57:01.148Z,98.50
2022-11-08T03:59:27.806Z,98.50
2022-11-08T04:01:54.570Z,98.50
2022-11-08T04:04:21.370Z,98.50
2022-11-08T04:06:48.046Z,98.50
2022-11-08T04:09:18.972Z,98.50
2022-11-08T04:12:06.943Z,98.50
2022-11-08T04:14:52.396Z,98.50
2022-11-08T04:17:19.049Z,98.50
2022-11-08T04:20:04.285Z,98.50
2022-11-08T04:22:30.942Z,98.50
2022-11-08T04:24:57.569Z,98.50
2022-11-08T04:27:24.215Z,98.50
2022-11-08T04:29:50.859Z,98.50
2022-11-08T04:32:17.528Z,98.50
2022-11-08T04:34:44.183Z,98.50
2022-11-08T04:37:10.840Z,98.50
2022-11-08T04:39:37.467Z,98.50
2022-11-08T04:42:04.240Z,98.50
2022-11-08T04:44:31.260Z,98.50
2022-11-08T04:46:59.090Z,98.50
2022-11-08T04:49:25.715Z,98.50
2022-11-08T04:51:52.343Z,98.50
2022-11-08T04:54:18.983Z,98.50
2022-11-08T04:56:45.610Z,98.50
2022-11-08T04:59:12.563Z,98.50
2022-11-08T05:01:39.399Z,98.50
2022-11-08T05:04:06.154Z,98.50
2022-11-08T05:06:32.825Z,98.50
2022-11-08T05:09:00.154Z,98.50
2022-11-08T05:11:29.509Z,98.50
2022-11-08T05:13:56.839Z,98.50
2022-11-08T05:16:27.385Z,98.50
2022-11-08T05:18:54.338Z,98.50
2022-11-08T05:21:40.816Z,98.50
2022-11-08T05:24:09.934Z,98.50
2022-11-08T05:26:39.560Z,98.50
2022-11-08T05:29:06.388Z,98.50
2022-11-08T05:31:33.149Z,98.50
2022-11-08T05:34:00.759Z,98.50
2022-11-08T05:36:28.312Z,98.50
2022-11-08T05:38:55.861Z,98.50
2022-11-08T05:41:24.380Z,98.50
2022-11-08T05:43:53.596Z,98.50
2022-11-08T05:46:22.083Z,98.50
2022-11-08T05:48:49.533Z,98.50
2022-11-08T05:51:18.282Z,98.50
2022-11-08T05:53:46.875Z,98.50
2022-11-08T05:56:13.596Z,98.50
2022-11-08T05:58:40.227Z,98.50
2022-11-08T06:01:15.560Z,98.50
2022-11-08T06:03:42.778Z,98.50
2022-11-08T06:06:12.111Z,98.50
2022-11-08T06:08:39.495Z,98.50
2022-11-08T06:11:14.210Z,98.50
2022-11-08T06:13:41.796Z,98.50
2022-11-08T06:16:11.803Z,98.50
2022-11-08T06:18:39.062Z,98.50
2022-11-08T06:21:08.980Z,98.50
2022-11-08T06:23:36.165Z,98.50
2022-11-08T06:26:03.298Z,98.50
2022-11-08T06:28:30.261Z,98.50
2022-11-08T06:31:00.802Z,98.50
2022-11-08T06:33:27.574Z,98.50
2022-11-08T06:35:54.766Z,98.50
2022-11-08T06:38:22.014Z,98.50
2022-11-08T06:40:49.053Z,98.50
2022-11-08T06:43:19.640Z,98.50
2022-11-08T06:45:47.413Z,98.50
2022-11-08T06:48:14.362Z,98.50
2022-11-08T06:50:42.019Z,98.50
2022-11-08T06:53:11.961Z,98.50
2022-11-08T06:55:38.630Z,98.50
2022-11-08T06:58:05.679Z,98.50
2022-11-08T07:00:32.542Z,98.50
2022-11-08T07:03:02.273Z,98.50
2022-11-08T07:05:30.868Z,98.50
2022-11-08T07:07:59.192Z,98.50
2022-11-08T07:10:29.197Z,98.50
2022-11-08T07:13:01.310Z,98.50
2022-11-08T07:15:28.450Z,98.50
2022-11-08T07:17:58.967Z,98.50
2022-11-08T07:20:25.672Z,98.50
2022-11-08T07:22:58.218Z,98.50
2022-11-08T07:25:25.969Z,98.50
2022-11-08T07:27:59.599Z,98.50
2022-11-08T07:30:27.203Z,98.50
2022-11-08T07:32:55.524Z,98.50
2022-11-08T07:35:22.451Z,98.50
2022-11-08T07:37:49.214Z,98.50
2022-11-08T07:40:15.919Z,98.50
2022-11-08T07:43:10.001Z,98.50
2022-11-08T07:45:29.680Z,98.50
2022-11-08T07:48:11.056Z,98.50
2022-11-08T07:50:39.068Z,98.50
2022-11-08T07:53:05.748Z,98.50
2022-11-08T07:55:32.671Z,98.50
2022-11-08T07:58:02.807Z,98.50
2022-11-08T08:00:30.158Z,98.50
2022-11-08T08:03:01.359Z,98.50
2022-11-08T08:05:29.838Z,98.50
2022-11-08T08:07:58.561Z,98.50
2022-11-08T08:10:26.547Z,98.50
2022-11-08T08:12:53.353Z,98.50
2022-11-08T08:15:20.106Z,98.50
2022-11-08T08:17:46.810Z,98.50
2022-11-08T08:20:14.075Z,98.50
2022-11-08T08:22:48.435Z,98.50
2022-11-08T08:25:16.267Z,98.50
2022-11-08T08:27:54.344Z,98.50
2022-11-08T08:30:22.425Z,98.50
2022-11-08T08:33:02.121Z,98.50
2022-11-08T08:35:38.033Z,98.50
2022-11-08T08:38:05.913Z,98.50
2022-11-08T08:40:33.474Z,98.50
2022-11-08T08:43:03.190Z,98.50
2022-11-08T08:45:30.753Z,98.50
2022-11-08T08:47:58.539Z,98.50
2022-11-08T08:50:27.417Z,98.50
2022-11-08T08:53:01.956Z,98.50
2022-11-08T08:55:28.997Z,98.50
2022-11-08T08:57:56.297Z,98.50
2022-11-08T09:03:11.058Z,98.50
2022-11-08T09:05:41.793Z,98.50
2022-11-08T09:08:08.469Z,98.50
2022-11-08T09:10:35.201Z,98.50
2022-11-08T09:13:02.765Z,98.50
2022-11-08T09:15:29.829Z,98.50
2022-11-08T09:17:57.157Z,98.50
2022-11-08T09:20:24.294Z,98.50
2022-11-08T09:22:51.042Z,98.50
2022-11-08T09:25:18.604Z,97.90
2022-11-08T09:27:45.702Z,96.70
2022-11-08T09:30:12.495Z,97.10
2022-11-08T09:32:59.675Z,96.70
2022-11-08T09:35:26.227Z,96.30
2022-11-08T09:37:53.885Z,96.20
2022-11-08T09:40:37.937Z,95.80
2022-11-08T09:43:22.636Z,96.30
2022-11-08T09:45:52.439Z,96.40
2022-11-08T09:48:30.122Z,96.40
2022-11-08T09:50:59.294Z,95.70
2022-11-08T09:53:46.988Z,95.50
2022-11-08T09:56:27.659Z,96.20
2022-11-08T09:58:58.173Z,95.90
2022-11-08T10:01:27.479Z,95.60
2022-11-08T10:03:56.740Z,94.90
2022-11-08T10:07:04.898Z,95.10
2022-11-08T10:09:59.474Z,95.20
2022-11-08T10:12:32.729Z,95.50
2022-11-08T10:15:34.468Z,95.30
2022-11-08T10:18:34.361Z,95.90
2022-11-08T10:21:05.050Z,96.80
2022-11-08T10:23:44.328Z,97.10
2022-11-08T10:26:26.901Z,96.50
2022-11-08T10:29:02.344Z,96.90
2022-11-08T10:31:33.002Z,95.10
2022-11-08T10:34:01.612Z,93.70
2022-11-08T10:36:46.780Z,92.40
2022-11-08T10:39:38.121Z,92.60
2022-11-08T10:42:29.575Z,93.20
2022-11-08T10:44:56.321Z,93.60
2022-11-08T10:47:29.546Z,93.90
2022-11-08T10:50:00.888Z,94.80
2022-11-08T10:53:04.037Z,95.10
2022-11-08T10:55:38.433Z,96.20
2022-11-08T10:58:29.107Z,97.20
2022-11-08T11:01:17.165Z,97.50
2022-11-08T11:03:45.630Z,98.50
2022-11-08T11:06:30.776Z,98.50
2022-11-08T11:09:03.701Z,98.50
2022-11-08T11:11:33.667Z,98.50
2022-11-08T11:14:22.143Z,98.50
2022-11-08T11:16:59.809Z,98.50
2022-11-08T11:19:27.854Z,98.50
2022-11-08T11:22:01.859Z,98.40
2022-11-08T11:24:28.700Z,98.50
2022-11-08T11:27:03.038Z,98.50
2022-11-08T11:29:32.697Z,97.20
2022-11-08T11:32:32.451Z,95.30
2022-11-08T11:35:02.314Z,95.20
2022-11-08T11:37:40.930Z,94.70
2022-11-08T11:40:17.990Z,92.40
2022-11-08T11:42:56.582Z,90.50
2022-11-08T11:46:05.279Z,91.30
2022-11-08T11:48:37.222Z,90.50
2022-11-08T11:51:03.919Z,90.30
2022-11-08T11:53:33.082Z,89.30
2022-11-08T11:56:25.972Z,88.40
2022-11-08T11:59:03.542Z,87.60
2022-11-08T12:02:01.285Z,87.50
2022-11-08T12:04:49.197Z,85.40
2022-11-08T12:07:26.786Z,87.10
2022-11-08T12:10:07.302Z,86.90
2022-11-08T12:12:48.478Z,86.40
2022-11-08T12:15:23.644Z,85.70
2022-11-08T12:17:57.918Z,83.50
2022-11-08T12:20:42.638Z,83.30
2022-11-08T12:23:33.112Z,83.40
2022-11-08T12:26:07.583Z,84.50
2022-11-08T12:29:01.477Z,84.70
2022-11-08T12:31:38.939Z,84.40
2022-11-08T12:34:54.076Z,83.60
2022-11-08T12:37:20.675Z,83.70
2022-11-08T12:39:55.108Z,84.30
2022-11-08T12:42:41.998Z,84.50
2022-11-08T12:45:24.012Z,85.30
2022-11-08T12:48:28.402Z,84.10
2022-11-08T12:51:25.456Z,84.20
2022-11-08T12:54:04.034Z,83.90
2022-11-08T12:56:39.296Z,82.10
2022-11-08T12:59:24.091Z,81.30
2022-11-08T13:01:52.172Z,81.50
2022-11-08T13:04:38.048Z,81.50
2022-11-08T13:07:30.545Z,81.60
2022-11-08T13:10:15.496Z,81.90
2022-11-08T13:13:16.949Z,82.10
2022-11-08T13:16:15.334Z,83.20
2022-11-08T13:18:46.545Z,83.80
2022-11-08T13:21:28.205Z,83.80
2022-11-08T13:24:06.646Z,84.50
2022-11-08T13:26:43.134Z,84.70
2022-11-08T13:29:16.614Z,85.30
2022-11-08T13:31:56.091Z,86.40
2022-11-08T13:35:01.408Z,88.10
2022-11-08T13:37:31.032Z,87.70
2022-11-08T13:40:12.664Z,87.30
2022-11-08T13:42:57.848Z,88.00
2022-11-08T13:45:31.829Z,88.60
2022-11-08T13:48:22.548Z,88.90
2022-11-08T13:51:23.389Z,89.00
2022-11-08T13:53:53.276Z,89.10
2022-11-08T13:56:24.811Z,87.60
2022-11-08T13:58:51.957Z,88.20
2022-11-08T14:01:18.690Z,88.50
2022-11-08T14:03:48.183Z,88.70
2022-11-08T14:06:29.892Z,88.90
2022-11-08T14:09:35.579Z,88.80
2022-11-08T14:12:25.675Z,88.30
2022-11-08T14:15:19.761Z,88.00
2022-11-08T14:17:52.257Z,87.70
2022-11-08T14:20:34.830Z,88.60
2022-11-08T14:23:27.278Z,88.70
2022-11-08T14:26:13.183Z,88.80
2022-11-08T14:28:42.836Z,89.40
2022-11-08T14:31:27.651Z,89.00
2022-11-08T14:33:55.528Z,89.30
2022-11-08T14:36:23.931Z,90.00
2022-11-08T14:39:05.688Z,91.00
2022-11-08T14:41:33.705Z,91.50
2022-11-08T14:44:02.704Z,91.50
2022-11-08T14:46:39.145Z,91.80
2022-11-08T14:49:18.489Z,92.60
2022-11-08T14:51:46.119Z,93.00
2022-11-08T14:54:21.472Z,94.20
2022-11-08T14:56:50.328Z,94.10
2022-11-08T14:59:17.539Z,94.50
2022-11-08T15:01:48.155Z,94.90
2022-11-08T15:04:23.150Z,95.90
2022-11-08T15:06:55.441Z,96.70
2022-11-08T15:09:27.989Z,97.00
2022-11-08T15:11:58.208Z,97.30
2022-11-08T15:14:27.292Z,98.00
2022-11-08T15:17:00.121Z,98.50
2022-11-08T15:19:42.578Z,98.50
2022-11-08T15:22:29.548Z,98.50
2022-11-08T15:25:14.525Z,98.50
2022-11-08T15:27:51.330Z,98.50
2022-11-08T15:30:22.550Z,98.50
2022-11-08T15:32:50.417Z,98.50
2022-11-08T15:35:46.329Z,98.50
2022-11-08T15:38:35.839Z,98.50
2022-11-08T15:41:26.232Z,98.50
2022-11-08T15:44:14.131Z,98.50
2022-11-08T15:49:28.897Z,98.50
2022-11-08T15:51:58.502Z,98.50
2022-11-08T15:54:27.057Z,98.50
2022-11-08T15:56:55.988Z,98.50
2022-11-08T15:59:26.941Z,98.50
2022-11-08T16:01:59.648Z,98.50
2022-11-08T16:04:28.680Z,98.50
2022-11-08T16:06:57.118Z,98.50
2022-11-08T16:09:26.794Z,98.50
2022-11-08T16:11:53.812Z,98.50
2022-11-08T16:14:23.892Z,98.50
2022-11-08T16:16:51.099Z,98.50
2022-11-08T16:19:20.716Z,98.50
2022-11-08T16:21:48.208Z,98.50
2022-11-08T16:24:15.305Z,98.50
2022-11-08T16:26:43.808Z,98.50
2022-11-08T16:29:22.513Z,98.50
2022-11-08T16:31:50.685Z,98.50
2022-11-08T16:34:17.999Z,98.50
2022-11-08T16:36:45.805Z,98.50
2022-11-08T16:39:22.358Z,98.50
2022-11-08T16:41:49.007Z,98.50
2022-11-08T16:44:15.975Z,98.50
2022-11-08T16:46:42.767Z,98.50
2022-11-08T16:49:19.682Z,98.50
2022-11-08T16:51:46.405Z,98.50
2022-11-08T16:54:21.286Z,98.50
2022-11-08T16:56:48.058Z,98.50
2022-11-08T16:59:15.671Z,98.50
2022-11-08T17:01:44.716Z,98.50
2022-11-08T17:04:11.610Z,98.50
2022-11-08T17:06:38.449Z,98.50
2022-11-08T17:09:05.425Z,98.50
2022-11-08T17:11:32.202Z,98.50
2022-11-08T17:13:58.919Z,98.50
2022-11-08T17:16:27.168Z,98.50
2022-11-08T17:18:53.933Z,98.50
2022-11-08T17:24:08.368Z,98.50
2022-11-08T17:26:35.303Z,98.50
2022-11-08T17:29:01.944Z,98.50
2022-11-08T17:31:28.634Z,98.50
2022-11-08T17:33:55.922Z,98.50
2022-11-08T17:36:23.010Z,98.50
2022-11-08T17:38:49.680Z,98.50
2022-11-08T17:41:16.506Z,98.50
2022-11-08T17:43:43.950Z,98.50
2022-11-08T17:46:11.143Z,98.50
2022-11-08T17:48:38.456Z,98.50
2022-11-08T17:51:05.444Z,98.50
2022-11-08T17:53:33.809Z,98.50
2022-11-08T17:56:02.997Z,98.50
2022-11-08T17:58:32.458Z,98.50
2022-11-08T18:01:00.069Z,98.50
2022-11-08T18:03:27.901Z,98.50
2022-11-08T18:05:55.376Z,98.50
2022-11-08T18:08:26.926Z,98.50
2022-11-08T18:10:54.425Z,98.50
2022-11-08T18:13:22.525Z,98.50
2022-11-08T18:15:52.380Z,98.50
2022-11-08T18:18:19.978Z,98.50
2022-11-08T18:20:53.892Z,98.50
2022-11-08T18:23:21.355Z,98.50
2022-11-08T18:25:49.739Z,98.50
2022-11-08T18:28:17.167Z,98.50
2022-11-08T18:30:47.699Z,98.50
2022-11-08T18:33:16.160Z,98.50
2022-11-08T18:35:43.439Z,98.50
2022-11-08T18:38:11.920Z,98.50
2022-11-08T18:40:39.184Z,98.50
2022-11-08T18:43:06.595Z,98.50
2022-11-08T18:45:33.604Z,98.50
2022-11-08T18:48:00.510Z,98.50
2022-11-08T18:50:27.234Z,98.50
2022-11-08T18:52:53.916Z,98.50
2022-11-08T18:55:20.613Z,98.50
2022-11-08T18:57:47.754Z,98.50
2022-11-08T19:00:14.760Z,98.50
2022-11-08T19:02:41.434Z,98.50
2022-11-08T19:05:08.350Z,98.50
2022-11-08T19:07:35.085Z,98.50
2022-11-08T19:10:01.766Z,98.50
2022-11-08T19:12:29.847Z,98.50
2022-11-08T19:14:56.608Z,98.50
2022-11-08T19:17:23.320Z,98.50
2022-11-08T19:19:50.112Z,98.50
2022-11-08T19:22:16.872Z,98.50
2022-11-08T19:24:43.535Z,98.50
2022-11-08T19:27:10.192Z,98.50
2022-11-08T19:29:36.853Z,98.50
2022-11-08T19:32:03.823Z,98.50
2022-11-08T19:34:31.164Z,98.50
2022-11-08T19:36:57.829Z,98.50
2022-11-08T19:39:24.727Z,98.50
2022-11-08T19:41:51.588Z,98.50
2022-11-08T19:44:18.504Z,98.50
2022-11-08T19:46:45.236Z,98.50
2022-11-08T19:49:11.901Z,98.50
2022-11-08T19:51:38.987Z,98.50
2022-11-08T19:54:08.077Z,98.50
2022-11-08T19:57:03.991Z,98.50
2022-11-08T19:59:23.649Z,98.50
2022-11-08T20:01:50.600Z,98.50
2022-11-08T20:04:21.175Z,98.50
2022-11-08T20:06:47.980Z,98.50
2022-11-08T20:09:14.755Z,98.50
2022-11-08T20:11:41.985Z,98.50
2022-11-08T20:14:11.458Z,98.50
2022-11-08T20:16:41.915Z,98.50
2022-11-08T20:19:14.735Z,98.50
2022-11-08T20:21:43.970Z,98.50
2022-11-08T20:24:11.325Z,98.50
2022-11-08T20:26:39.088Z,98.50
2022-11-08T20:29:07.324Z,98.50
2022-11-08T20:31:34.495Z,98.50
2022-11-08T20:34:05.364Z,98.50
2022-11-08T20:36:35.250Z,98.50
2022-11-08T20:39:06.805Z,98.50
2022-11-08T20:41:35.666Z,98.50
2022-11-08T20:44:02.874Z,98.50
2022-11-08T20:46:29.690Z,98.50
2022-11-08T20:49:00.340Z,98.50
2022-11-08T20:51:27.919Z,98.50
2022-11-08T20:53:55.993Z,98.50
2022-11-08T20:56:23.655Z,98.50
2022-11-08T20:58:51.656Z,98.50
2022-11-08T21:01:21.786Z,98.50
2022-11-08T21:03:49.350Z,98.50
2022-11-08T21:06:18.248Z,98.50
2022-11-08T21:09:08.286Z,98.50
2022-11-08T21:11:34.447Z,98.50
2022-11-08T21:14:01.758Z,98.50
2022-11-08T21:16:31.956Z,98.50
2022-11-08T21:19:02.103Z,98.50
2022-11-08T21:21:28.736Z,98.50
2022-11-08T21:23:55.462Z,98.50
2022-11-08T21:26:23.012Z,98.50
2022-11-08T21:28:49.879Z,98.50
2022-11-08T21:31:17.036Z,98.50
2022-11-08T21:33:43.693Z,98.50
2022-11-08T21:36:10.775Z,98.50
2022-11-08T21:38:38.577Z,98.50
2022-11-08T21:41:07.892Z,98.50
2022-11-08T21:43:42.810Z,98.50
2022-11-08T21:46:26.184Z,98.50
2022-11-08T21:48:55.115Z,98.50
2022-11-08T21:51:22.055Z,98.50
2022-11-08T21:53:55.763Z,98.50
2022-11-08T21:56:24.683Z,98.50
2022-11-08T21:58:51.800Z,98.50
2022-11-08T22:01:18.983Z,98.50
2022-11-08T22:03:46.365Z,98.50
2022-11-08T22:06:13.687Z,98.50
2022-11-08T22:08:40.330Z,98.50
2022-11-08T22:11:07.000Z,98.50
2022-11-08T22:13:33.908Z,98.50
2022-11-08T22:16:00.811Z,98.50
2022-11-08T22:18:43.306Z,98.50
2022-11-08T22:21:32.655Z,98.50
2022-11-08T22:23:59.536Z,98.50
2022-11-08T22:26:26.176Z,98.50
2022-11-08T22:28:52.828Z,98.50
2022-11-08T22:31:19.471Z,98.50
2022-11-08T22:33:46.132Z,98.50
2022-11-08T22:36:12.812Z,98.50
2022-11-08T22:38:39.516Z,98.50
2022-11-08T22:41:06.992Z,98.50
2022-11-08T22:43:35.771Z,98.50
2022-11-08T22:46:02.671Z,98.50
2022-11-08T22:48:29.309Z,98.50
2022-11-08T22:50:56.123Z,98.50
2022-11-08T22:53:22.967Z,98.50
2022-11-08T22:55:49.598Z,98.50
2022-11-08T22:58:16.235Z,98.50
2022-11-08T23:00:43.189Z,98.50
2022-11-08T23:03:09.936Z,98.50
2022-11-08T23:05:36.621Z,98.50
2022-11-08T23:08:03.315Z,98.50
2022-11-08T23:10:30.037Z,98.50
2022-11-08T23:13:15.185Z,98.50
2022-11-08T23:16:00.796Z,98.50
2022-11-08T23:18:27.671Z,98.50
2022-11-08T23:21:14.044Z,98.50
2022-11-08T23:23:59.324Z,98.50
2022-11-08T23:26:45.039Z,98.50
2022-11-08T23:29:31.020Z,98.50
2022-11-08T23:31:57.701Z,98.50
2022-11-08T23:34:24.427Z,98.50
2022-11-08T23:36:51.078Z,98.50
2022-11-08T23:39:17.711Z,98.50
2022-11-08T23:42:02.892Z,98.50
2022-11-08T23:44:29.586Z,98.50
2022-11-08T23:47:00.994Z,98.50
2022-11-08T23:49:28.318Z,98.50
2022-11-08T23:51:55.179Z,98.50
2022-11-08T23:54:22.107Z,98.50
2022-11-08T23:56:49.443Z,98.50
2022-11-08T23:59:16.434Z,98.50
